sensor_id;sensor_type;location;lat;lon;timestamp;temperature;humidity
20174;DHT22;10246;50.620;7.232;2023-04-03T00:01:27;6.60;1.00
20174;DHT22;10246;50.620;7.232;2023-04-03T00:03:55;6.60;1.00
20174;DHT22;10246;50.620;7.232;2023-04-03T00:06:22;6.60;1.00
20174;DHT22;10246;50.620;7.232;2023-04-03T00:08:50;6.60;1.00
20174;DHT22;10246;50.620;7.232;2023-04-03T00:11:19;6.70;1.00
20174;DHT22;10246;50.620;7.232;2023-04-03T00:13:47;6.80;1.00
20174;DHT22;10246;50.620;7.232;2023-04-03T00:16:13;6.80;1.00
20174;DHT22;10246;50.620;7.232;2023-04-03T00:18:40;6.90;1.00
20174;DHT22;10246;50.620;7.232;2023-04-03T00:21:07;6.90;1.00
20174;DHT22;10246;50.620;7.232;2023-04-03T00:23:34;6.90;1.00
20174;DHT22;10246;50.620;7.232;2023-04-03T00:26:01;6.90;1.00
20174;DHT22;10246;50.620;7.232;2023-04-03T00:28:30;6.90;1.00
20174;DHT22;10246;50.620;7.232;2023-04-03T00:30:57;6.90;1.00
20174;DHT22;10246;50.620;7.232;2023-04-03T00:33:23;6.90;1.00
20174;DHT22;10246;50.620;7.232;2023-04-03T00:35:51;6.90;1.00
20174;DHT22;10246;50.620;7.232;2023-04-03T00:38:18;6.90;1.00
20174;DHT22;10246;50.620;7.232;2023-04-03T00:40:46;6.90;1.00
20174;DHT22;10246;50.620;7.232;2023-04-03T00:43:15;6.90;1.00
20174;DHT22;10246;50.620;7.232;2023-04-03T00:45:45;6.90;1.00
20174;DHT22;10246;50.620;7.232;2023-04-03T00:48:15;6.80;1.00
20174;DHT22;10246;50.620;7.232;2023-04-03T00:50:44;6.90;1.00
20174;DHT22;10246;50.620;7.232;2023-04-03T00:53:13;6.90;1.00
20174;DHT22;10246;50.620;7.232;2023-04-03T00:55:41;6.90;1.00
20174;DHT22;10246;50.620;7.232;2023-04-03T00:58:09;6.80;1.00
20174;DHT22;10246;50.620;7.232;2023-04-03T01:00:37;6.80;1.00
20174;DHT22;10246;50.620;7.232;2023-04-03T01:03:08;6.80;1.00
20174;DHT22;10246;50.620;7.232;2023-04-03T01:05:35;6.80;1.00
20174;DHT22;10246;50.620;7.232;2023-04-03T01:08:02;6.80;1.00
20174;DHT22;10246;50.620;7.232;2023-04-03T01:10:28;6.80;1.00
20174;DHT22;10246;50.620;7.232;2023-04-03T01:12:55;6.70;1.00
20174;DHT22;10246;50.620;7.232;2023-04-03T01:15:24;6.80;1.00
20174;DHT22;10246;50.620;7.232;2023-04-03T01:17:54;6.80;1.00
20174;DHT22;10246;50.620;7.232;2023-04-03T01:20:43;6.80;1.00
20174;DHT22;10246;50.620;7.232;2023-04-03T01:23:22;6.80;1.00
20174;DHT22;10246;50.620;7.232;2023-04-03T01:25:53;6.70;1.00
20174;DHT22;10246;50.620;7.232;2023-04-03T01:28:22;6.60;1.00
20174;DHT22;10246;50.620;7.232;2023-04-03T01:30:53;6.60;1.00
20174;DHT22;10246;50.620;7.232;2023-04-03T01:33:21;6.60;1.00
20174;DHT22;10246;50.620;7.232;2023-04-03T01:35:48;6.60;1.00
20174;DHT22;10246;50.620;7.232;2023-04-03T01:38:14;6.60;1.00
20174;DHT22;10246;50.620;7.232;2023-04-03T01:40:41;6.60;1.00
20174;DHT22;10246;50.620;7.232;2023-04-03T01:43:08;6.60;1.00
20174;DHT22;10246;50.620;7.232;2023-04-03T01:45:35;6.60;1.00
20174;DHT22;10246;50.620;7.232;2023-04-03T01:48:02;6.60;1.00
20174;DHT22;10246;50.620;7.232;2023-04-03T01:50:31;6.60;1.00
20174;DHT22;10246;50.620;7.232;2023-04-03T01:52:58;6.60;1.00
20174;DHT22;10246;50.620;7.232;2023-04-03T01:55:24;6.60;1.00
20174;DHT22;10246;50.620;7.232;2023-04-03T01:57:51;6.60;1.00
20174;DHT22;10246;50.620;7.232;2023-04-03T02:00:18;6.60;1.00
20174;DHT22;10246;50.620;7.232;2023-04-03T02:02:45;6.60;1.00
20174;DHT22;10246;50.620;7.232;2023-04-03T02:05:12;6.60;1.00
20174;DHT22;10246;50.620;7.232;2023-04-03T02:07:40;6.50;1.00
20174;DHT22;10246;50.620;7.232;2023-04-03T02:10:07;6.50;1.00
20174;DHT22;10246;50.620;7.232;2023-04-03T02:12:34;6.60;1.00
20174;DHT22;10246;50.620;7.232;2023-04-03T02:15:01;6.60;1.00
20174;DHT22;10246;50.620;7.232;2023-04-03T02:17:27;6.50;1.00
20174;DHT22;10246;50.620;7.232;2023-04-03T02:19:54;6.50;1.00
20174;DHT22;10246;50.620;7.232;2023-04-03T02:22:21;6.50;1.00
20174;DHT22;10246;50.620;7.232;2023-04-03T02:24:49;6.50;1.00
20174;DHT22;10246;50.620;7.232;2023-04-03T02:27:17;6.40;1.00
20174;DHT22;10246;50.620;7.232;2023-04-03T02:29:44;6.40;1.00
20174;DHT22;10246;50.620;7.232;2023-04-03T02:32:10;6.40;1.00
20174;DHT22;10246;50.620;7.232;2023-04-03T02:34:37;6.40;1.00
20174;DHT22;10246;50.620;7.232;2023-04-03T02:37:04;6.50;1.00
20174;DHT22;10246;50.620;7.232;2023-04-03T02:39:31;6.40;1.00
20174;DHT22;10246;50.620;7.232;2023-04-03T02:41:59;6.40;1.00
20174;DHT22;10246;50.620;7.232;2023-04-03T02:44:26;6.40;1.00
20174;DHT22;10246;50.620;7.232;2023-04-03T02:46:52;6.40;1.00
20174;DHT22;10246;50.620;7.232;2023-04-03T02:49:19;6.40;1.00
20174;DHT22;10246;50.620;7.232;2023-04-03T02:51:46;6.40;1.00
20174;DHT22;10246;50.620;7.232;2023-04-03T02:54:13;6.40;1.00
20174;DHT22;10246;50.620;7.232;2023-04-03T02:56:40;6.40;1.00
20174;DHT22;10246;50.620;7.232;2023-04-03T02:59:08;6.40;1.00
20174;DHT22;10246;50.620;7.232;2023-04-03T03:01:35;6.40;1.00
20174;DHT22;10246;50.620;7.232;2023-04-03T03:04:02;6.30;1.00
20174;DHT22;10246;50.620;7.232;2023-04-03T03:06:28;6.50;1.00
20174;DHT22;10246;50.620;7.232;2023-04-03T03:08:55;6.40;1.00
20174;DHT22;10246;50.620;7.232;2023-04-03T03:11:22;6.40;1.00
20174;DHT22;10246;50.620;7.232;2023-04-03T03:13:48;6.50;1.00
20174;DHT22;10246;50.620;7.232;2023-04-03T03:16:17;6.40;1.00
20174;DHT22;10246;50.620;7.232;2023-04-03T03:18:44;6.40;1.00
20174;DHT22;10246;50.620;7.232;2023-04-03T03:21:11;6.30;1.00
20174;DHT22;10246;50.620;7.232;2023-04-03T03:23:37;6.30;1.00
20174;DHT22;10246;50.620;7.232;2023-04-03T03:26:07;6.30;1.00
20174;DHT22;10246;50.620;7.232;2023-04-03T03:28:35;6.40;1.00
20174;DHT22;10246;50.620;7.232;2023-04-03T03:31:02;6.30;1.00
20174;DHT22;10246;50.620;7.232;2023-04-03T03:33:31;6.40;1.00
20174;DHT22;10246;50.620;7.232;2023-04-03T03:35:58;6.30;1.00
20174;DHT22;10246;50.620;7.232;2023-04-03T03:38:25;6.30;1.00
20174;DHT22;10246;50.620;7.232;2023-04-03T03:40:52;6.30;1.00
20174;DHT22;10246;50.620;7.232;2023-04-03T03:43:19;6.30;1.00
20174;DHT22;10246;50.620;7.232;2023-04-03T03:45:50;6.30;1.00
20174;DHT22;10246;50.620;7.232;2023-04-03T03:48:17;6.30;1.00
20174;DHT22;10246;50.620;7.232;2023-04-03T03:50:45;6.20;1.00
20174;DHT22;10246;50.620;7.232;2023-04-03T03:53:12;6.20;1.00
20174;DHT22;10246;50.620;7.232;2023-04-03T03:55:38;6.10;1.00
20174;DHT22;10246;50.620;7.232;2023-04-03T03:58:05;6.10;1.00
20174;DHT22;10246;50.620;7.232;2023-04-03T04:00:32;6.10;1.00
20174;DHT22;10246;50.620;7.232;2023-04-03T04:02:59;6.00;1.00
20174;DHT22;10246;50.620;7.232;2023-04-03T04:05:26;6.00;1.00
20174;DHT22;10246;50.620;7.232;2023-04-03T04:07:54;6.00;1.00
20174;DHT22;10246;50.620;7.232;2023-04-03T04:10:23;6.00;1.00
20174;DHT22;10246;50.620;7.232;2023-04-03T04:12:49;5.90;1.00
20174;DHT22;10246;50.620;7.232;2023-04-03T04:15:16;5.90;1.00
20174;DHT22;10246;50.620;7.232;2023-04-03T04:17:44;5.80;1.00
20174;DHT22;10246;50.620;7.232;2023-04-03T04:20:11;5.90;1.00
20174;DHT22;10246;50.620;7.232;2023-04-03T04:22:38;5.80;1.00
20174;DHT22;10246;50.620;7.232;2023-04-03T04:25:06;5.80;1.00
20174;DHT22;10246;50.620;7.232;2023-04-03T04:27:33;5.70;1.00
20174;DHT22;10246;50.620;7.232;2023-04-03T04:30:00;5.70;1.00
20174;DHT22;10246;50.620;7.232;2023-04-03T04:32:28;5.60;1.00
20174;DHT22;10246;50.620;7.232;2023-04-03T04:34:55;5.60;1.00
20174;DHT22;10246;50.620;7.232;2023-04-03T04:37:21;5.60;1.00
20174;DHT22;10246;50.620;7.232;2023-04-03T04:39:48;5.50;1.00
20174;DHT22;10246;50.620;7.232;2023-04-03T04:42:17;5.50;1.00
20174;DHT22;10246;50.620;7.232;2023-04-03T04:44:43;5.40;1.00
20174;DHT22;10246;50.620;7.232;2023-04-03T04:47:10;5.40;1.00
20174;DHT22;10246;50.620;7.232;2023-04-03T04:49:37;5.40;1.00
20174;DHT22;10246;50.620;7.232;2023-04-03T04:52:04;5.30;1.00
20174;DHT22;10246;50.620;7.232;2023-04-03T04:54:32;5.30;1.00
20174;DHT22;10246;50.620;7.232;2023-04-03T04:56:58;5.20;1.00
20174;DHT22;10246;50.620;7.232;2023-04-03T04:59:27;5.20;1.00
20174;DHT22;10246;50.620;7.232;2023-04-03T05:01:54;5.20;1.00
20174;DHT22;10246;50.620;7.232;2023-04-03T05:04:20;5.10;1.00
20174;DHT22;10246;50.620;7.232;2023-04-03T05:06:47;5.10;1.00
20174;DHT22;10246;50.620;7.232;2023-04-03T05:09:14;5.00;1.00
20174;DHT22;10246;50.620;7.232;2023-04-03T05:11:41;5.00;1.00
20174;DHT22;10246;50.620;7.232;2023-04-03T05:14:08;5.00;1.00
20174;DHT22;10246;50.620;7.232;2023-04-03T05:16:36;5.00;1.00
20174;DHT22;10246;50.620;7.232;2023-04-03T05:19:03;5.00;1.00
20174;DHT22;10246;50.620;7.232;2023-04-03T05:21:30;5.10;1.00
20174;DHT22;10246;50.620;7.232;2023-04-03T05:23:59;5.00;1.00
20174;DHT22;10246;50.620;7.232;2023-04-03T05:26:28;5.00;1.00
20174;DHT22;10246;50.620;7.232;2023-04-03T05:28:55;5.00;1.00
20174;DHT22;10246;50.620;7.232;2023-04-03T05:31:22;5.00;1.00
20174;DHT22;10246;50.620;7.232;2023-04-03T05:33:50;5.00;1.00
20174;DHT22;10246;50.620;7.232;2023-04-03T05:36:17;5.00;1.00
20174;DHT22;10246;50.620;7.232;2023-04-03T05:38:44;5.00;1.00
20174;DHT22;10246;50.620;7.232;2023-04-03T05:41:11;5.00;1.00
20174;DHT22;10246;50.620;7.232;2023-04-03T05:43:37;5.00;1.00
20174;DHT22;10246;50.620;7.232;2023-04-03T05:46:08;5.00;1.00
20174;DHT22;10246;50.620;7.232;2023-04-03T05:48:35;4.90;1.00
20174;DHT22;10246;50.620;7.232;2023-04-03T05:51:04;4.90;1.00
20174;DHT22;10246;50.620;7.232;2023-04-03T05:53:33;4.90;1.00
20174;DHT22;10246;50.620;7.232;2023-04-03T05:56:00;4.90;1.00
20174;DHT22;10246;50.620;7.232;2023-04-03T05:58:27;4.90;1.00
20174;DHT22;10246;50.620;7.232;2023-04-03T06:00:54;4.90;1.00
20174;DHT22;10246;50.620;7.232;2023-04-03T06:03:20;4.90;1.00
20174;DHT22;10246;50.620;7.232;2023-04-03T06:05:47;4.80;1.00
20174;DHT22;10246;50.620;7.232;2023-04-03T06:08:16;4.90;1.00
20174;DHT22;10246;50.620;7.232;2023-04-03T06:10:42;4.80;1.00
20174;DHT22;10246;50.620;7.232;2023-04-03T06:13:09;4.80;1.00
20174;DHT22;10246;50.620;7.232;2023-04-03T06:15:36;4.80;1.00
20174;DHT22;10246;50.620;7.232;2023-04-03T06:18:03;4.80;1.00
20174;DHT22;10246;50.620;7.232;2023-04-03T06:20:30;4.80;1.00
20174;DHT22;10246;50.620;7.232;2023-04-03T06:22:57;4.80;1.00
20174;DHT22;10246;50.620;7.232;2023-04-03T06:25:25;4.80;1.00
20174;DHT22;10246;50.620;7.232;2023-04-03T06:27:52;4.80;1.00
20174;DHT22;10246;50.620;7.232;2023-04-03T06:30:20;4.90;1.00
20174;DHT22;10246;50.620;7.232;2023-04-03T06:32:47;4.90;1.00
20174;DHT22;10246;50.620;7.232;2023-04-03T06:35:14;4.90;1.00
20174;DHT22;10246;50.620;7.232;2023-04-03T06:37:41;5.00;1.00
20174;DHT22;10246;50.620;7.232;2023-04-03T06:40:16;5.00;1.00
20174;DHT22;10246;50.620;7.232;2023-04-03T06:42:46;5.00;1.00
20174;DHT22;10246;50.620;7.232;2023-04-03T06:45:13;5.10;1.00
20174;DHT22;10246;50.620;7.232;2023-04-03T06:47:40;5.10;1.00
20174;DHT22;10246;50.620;7.232;2023-04-03T06:50:07;5.10;1.00
20174;DHT22;10246;50.620;7.232;2023-04-03T06:52:36;5.30;1.00
20174;DHT22;10246;50.620;7.232;2023-04-03T06:55:05;5.40;1.00
20174;DHT22;10246;50.620;7.232;2023-04-03T06:57:32;5.40;1.00
20174;DHT22;10246;50.620;7.232;2023-04-03T07:00:00;5.50;1.00
20174;DHT22;10246;50.620;7.232;2023-04-03T07:02:28;5.60;1.00
20174;DHT22;10246;50.620;7.232;2023-04-03T07:04:55;5.80;1.00
20174;DHT22;10246;50.620;7.232;2023-04-03T07:07:22;5.80;1.00
20174;DHT22;10246;50.620;7.232;2023-04-03T07:09:48;5.90;1.00
20174;DHT22;10246;50.620;7.232;2023-04-03T07:12:15;5.90;1.00
20174;DHT22;10246;50.620;7.232;2023-04-03T07:14:42;6.00;1.00
20174;DHT22;10246;50.620;7.232;2023-04-03T07:17:10;6.00;1.00
20174;DHT22;10246;50.620;7.232;2023-04-03T07:19:37;6.10;1.00
20174;DHT22;10246;50.620;7.232;2023-04-03T07:22:04;6.20;1.00
20174;DHT22;10246;50.620;7.232;2023-04-03T07:24:30;6.30;1.00
20174;DHT22;10246;50.620;7.232;2023-04-03T07:26:57;6.40;1.00
20174;DHT22;10246;50.620;7.232;2023-04-03T07:29:24;6.50;1.00
20174;DHT22;10246;50.620;7.232;2023-04-03T07:31:50;6.70;1.00
20174;DHT22;10246;50.620;7.232;2023-04-03T07:34:19;6.80;1.00
20174;DHT22;10246;50.620;7.232;2023-04-03T07:36:48;6.90;1.00
20174;DHT22;10246;50.620;7.232;2023-04-03T07:39:14;7.00;1.00
20174;DHT22;10246;50.620;7.232;2023-04-03T07:41:41;7.00;1.00
20174;DHT22;10246;50.620;7.232;2023-04-03T07:44:08;7.10;1.00
20174;DHT22;10246;50.620;7.232;2023-04-03T07:46:36;7.20;1.00
20174;DHT22;10246;50.620;7.232;2023-04-03T07:49:03;7.20;1.00
20174;DHT22;10246;50.620;7.232;2023-04-03T07:51:31;7.30;1.00
20174;DHT22;10246;50.620;7.232;2023-04-03T07:53:58;7.50;1.00
20174;DHT22;10246;50.620;7.232;2023-04-03T07:56:25;7.60;1.00
20174;DHT22;10246;50.620;7.232;2023-04-03T07:58:52;7.70;1.00
20174;DHT22;10246;50.620;7.232;2023-04-03T08:01:19;7.80;1.00
20174;DHT22;10246;50.620;7.232;2023-04-03T08:03:46;7.90;1.00
20174;DHT22;10246;50.620;7.232;2023-04-03T08:06:13;7.90;1.00
20174;DHT22;10246;50.620;7.232;2023-04-03T08:08:42;8.00;1.00
20174;DHT22;10246;50.620;7.232;2023-04-03T08:11:10;8.10;1.00
20174;DHT22;10246;50.620;7.232;2023-04-03T08:13:40;8.10;1.00
20174;DHT22;10246;50.620;7.232;2023-04-03T08:18:38;8.40;1.00
20174;DHT22;10246;50.620;7.232;2023-04-03T08:21:07;8.40;1.00
20174;DHT22;10246;50.620;7.232;2023-04-03T08:23:34;8.40;1.00
20174;DHT22;10246;50.620;7.232;2023-04-03T08:26:09;8.50;1.00
20174;DHT22;10246;50.620;7.232;2023-04-03T08:28:39;8.50;1.00
20174;DHT22;10246;50.620;7.232;2023-04-03T08:31:11;8.60;1.00
20174;DHT22;10246;50.620;7.232;2023-04-03T08:33:39;8.70;1.00
20174;DHT22;10246;50.620;7.232;2023-04-03T08:36:17;8.70;1.00
20174;DHT22;10246;50.620;7.232;2023-04-03T08:38:47;8.70;1.00
20174;DHT22;10246;50.620;7.232;2023-04-03T08:41:20;8.80;1.00
20174;DHT22;10246;50.620;7.232;2023-04-03T08:44:14;8.80;1.00
20174;DHT22;10246;50.620;7.232;2023-04-03T08:47:02;8.80;1.00
20174;DHT22;10246;50.620;7.232;2023-04-03T08:49:33;8.90;1.00
20174;DHT22;10246;50.620;7.232;2023-04-03T08:52:05;9.00;1.00
20174;DHT22;10246;50.620;7.232;2023-04-03T08:54:46;9.00;1.00
20174;DHT22;10246;50.620;7.232;2023-04-03T08:57:18;9.00;1.00
20174;DHT22;10246;50.620;7.232;2023-04-03T08:59:50;9.10;1.00
20174;DHT22;10246;50.620;7.232;2023-04-03T09:02:25;9.10;1.00
20174;DHT22;10246;50.620;7.232;2023-04-03T09:04:55;9.20;1.00
20174;DHT22;10246;50.620;7.232;2023-04-03T09:07:27;9.40;1.00
20174;DHT22;10246;50.620;7.232;2023-04-03T09:10:02;9.40;1.00
20174;DHT22;10246;50.620;7.232;2023-04-03T09:12:38;9.50;1.00
20174;DHT22;10246;50.620;7.232;2023-04-03T09:15:18;9.50;1.00
20174;DHT22;10246;50.620;7.232;2023-04-03T09:17:57;9.50;1.00
20174;DHT22;10246;50.620;7.232;2023-04-03T09:20:38;9.50;1.00
20174;DHT22;10246;50.620;7.232;2023-04-03T09:23:22;9.60;1.00
20174;DHT22;10246;50.620;7.232;2023-04-03T09:25:54;9.70;1.00
20174;DHT22;10246;50.620;7.232;2023-04-03T09:28:29;9.70;1.00
20174;DHT22;10246;50.620;7.232;2023-04-03T09:31:00;10.00;1.00
20174;DHT22;10246;50.620;7.232;2023-04-03T09:33:30;10.10;1.00
20174;DHT22;10246;50.620;7.232;2023-04-03T09:35:58;10.00;1.00
20174;DHT22;10246;50.620;7.232;2023-04-03T09:38:28;9.80;1.00
20174;DHT22;10246;50.620;7.232;2023-04-03T09:41:05;9.70;1.00
20174;DHT22;10246;50.620;7.232;2023-04-03T09:43:38;9.60;1.00
20174;DHT22;10246;50.620;7.232;2023-04-03T09:46:25;9.70;1.00
20174;DHT22;10246;50.620;7.232;2023-04-03T09:48:57;9.90;1.00
20174;DHT22;10246;50.620;7.232;2023-04-03T09:51:26;9.90;1.00
20174;DHT22;10246;50.620;7.232;2023-04-03T09:53:55;10.00;1.00
20174;DHT22;10246;50.620;7.232;2023-04-03T09:56:25;10.30;1.00
20174;DHT22;10246;50.620;7.232;2023-04-03T09:59:08;10.30;1.00
20174;DHT22;10246;50.620;7.232;2023-04-03T10:01:43;10.20;1.00
20174;DHT22;10246;50.620;7.232;2023-04-03T10:04:25;10.30;1.00
20174;DHT22;10246;50.620;7.232;2023-04-03T10:06:53;10.50;1.00
20174;DHT22;10246;50.620;7.232;2023-04-03T10:09:23;10.60;1.00
20174;DHT22;10246;50.620;7.232;2023-04-03T10:12:00;10.70;1.00
20174;DHT22;10246;50.620;7.232;2023-04-03T10:14:29;10.80;1.00
20174;DHT22;10246;50.620;7.232;2023-04-03T10:17:09;10.90;1.00
20174;DHT22;10246;50.620;7.232;2023-04-03T10:19:48;10.70;1.00
20174;DHT22;10246;50.620;7.232;2023-04-03T10:22:29;10.20;1.00
20174;DHT22;10246;50.620;7.232;2023-04-03T10:25:04;10.20;1.00
20174;DHT22;10246;50.620;7.232;2023-04-03T10:27:44;10.30;1.00
20174;DHT22;10246;50.620;7.232;2023-04-03T10:30:40;10.60;1.00
20174;DHT22;10246;50.620;7.232;2023-04-03T10:33:20;10.80;1.00
20174;DHT22;10246;50.620;7.232;2023-04-03T10:36:00;10.90;1.00
20174;DHT22;10246;50.620;7.232;2023-04-03T10:38:42;11.00;1.00
20174;DHT22;10246;50.620;7.232;2023-04-03T10:41:23;11.10;1.00
20174;DHT22;10246;50.620;7.232;2023-04-03T10:44:07;11.20;1.00
20174;DHT22;10246;50.620;7.232;2023-04-03T10:46:48;11.30;1.00
20174;DHT22;10246;50.620;7.232;2023-04-03T10:49:27;11.30;1.00
20174;DHT22;10246;50.620;7.232;2023-04-03T10:52:04;11.30;1.00
20174;DHT22;10246;50.620;7.232;2023-04-03T10:54:38;11.60;1.00
20174;DHT22;10246;50.620;7.232;2023-04-03T10:57:08;11.60;1.00
20174;DHT22;10246;50.620;7.232;2023-04-03T10:59:41;11.70;1.00
20174;DHT22;10246;50.620;7.232;2023-04-03T11:02:17;11.70;1.00
20174;DHT22;10246;50.620;7.232;2023-04-03T11:04:51;11.70;1.00
20174;DHT22;10246;50.620;7.232;2023-04-03T11:07:23;11.50;1.00
20174;DHT22;10246;50.620;7.232;2023-04-03T11:09:55;11.60;1.00
20174;DHT22;10246;50.620;7.232;2023-04-03T11:12:28;11.60;1.00
20174;DHT22;10246;50.620;7.232;2023-04-03T11:14:58;11.80;1.00
20174;DHT22;10246;50.620;7.232;2023-04-03T11:17:35;11.80;1.00
20174;DHT22;10246;50.620;7.232;2023-04-03T11:20:08;12.00;1.00
20174;DHT22;10246;50.620;7.232;2023-04-03T11:22:42;12.20;1.00
20174;DHT22;10246;50.620;7.232;2023-04-03T11:25:18;12.10;1.00
20174;DHT22;10246;50.620;7.232;2023-04-03T11:27:51;12.30;1.00
20174;DHT22;10246;50.620;7.232;2023-04-03T11:30:23;12.10;1.00
20174;DHT22;10246;50.620;7.232;2023-04-03T11:33:20;12.30;1.00
20174;DHT22;10246;50.620;7.232;2023-04-03T11:35:55;12.50;1.00
20174;DHT22;10246;50.620;7.232;2023-04-03T11:38:26;12.70;1.00
20174;DHT22;10246;50.620;7.232;2023-04-03T11:40:56;12.60;1.00
20174;DHT22;10246;50.620;7.232;2023-04-03T11:43:27;12.50;1.00
20174;DHT22;10246;50.620;7.232;2023-04-03T11:45:57;12.30;1.00
20174;DHT22;10246;50.620;7.232;2023-04-03T11:48:50;12.20;1.00
20174;DHT22;10246;50.620;7.232;2023-04-03T11:51:42;12.40;1.00
20174;DHT22;10246;50.620;7.232;2023-04-03T11:54:45;12.40;1.00
20174;DHT22;10246;50.620;7.232;2023-04-03T11:58:01;12.80;1.00
20174;DHT22;10246;50.620;7.232;2023-04-03T12:00:54;12.70;1.00
20174;DHT22;10246;50.620;7.232;2023-04-03T12:03:57;12.50;1.00
20174;DHT22;10246;50.620;7.232;2023-04-03T12:10:14;12.40;1.00
20174;DHT22;10246;50.620;7.232;2023-04-03T12:12:56;12.20;1.00
20174;DHT22;10246;50.620;7.232;2023-04-03T12:15:55;12.20;1.00
20174;DHT22;10246;50.620;7.232;2023-04-03T12:18:53;12.30;1.00
20174;DHT22;10246;50.620;7.232;2023-04-03T12:21:24;12.40;1.00
20174;DHT22;10246;50.620;7.232;2023-04-03T12:24:24;12.50;1.00
20174;DHT22;10246;50.620;7.232;2023-04-03T12:27:12;12.60;1.00
20174;DHT22;10246;50.620;7.232;2023-04-03T12:29:51;12.70;1.00
20174;DHT22;10246;50.620;7.232;2023-04-03T12:32:29;12.10;1.00
20174;DHT22;10246;50.620;7.232;2023-04-03T12:35:10;11.90;1.00
20174;DHT22;10246;50.620;7.232;2023-04-03T12:38:02;12.10;1.00
20174;DHT22;10246;50.620;7.232;2023-04-03T12:40:43;12.50;1.00
20174;DHT22;10246;50.620;7.232;2023-04-03T12:43:39;12.90;1.00
20174;DHT22;10246;50.620;7.232;2023-04-03T12:46:13;13.00;1.00
20174;DHT22;10246;50.620;7.232;2023-04-03T12:48:48;13.30;1.00
20174;DHT22;10246;50.620;7.232;2023-04-03T12:51:18;13.30;1.00
20174;DHT22;10246;50.620;7.232;2023-04-03T12:53:49;13.20;1.00
20174;DHT22;10246;50.620;7.232;2023-04-03T12:56:23;13.20;1.00
20174;DHT22;10246;50.620;7.232;2023-04-03T12:58:52;13.10;1.00
20174;DHT22;10246;50.620;7.232;2023-04-03T13:01:21;13.20;1.00
20174;DHT22;10246;50.620;7.232;2023-04-03T13:03:52;13.10;1.00
20174;DHT22;10246;50.620;7.232;2023-04-03T13:06:21;13.30;1.00
20174;DHT22;10246;50.620;7.232;2023-04-03T13:08:51;13.60;1.00
20174;DHT22;10246;50.620;7.232;2023-04-03T13:11:21;13.80;1.00
20174;DHT22;10246;50.620;7.232;2023-04-03T13:13:58;13.80;1.00
20174;DHT22;10246;50.620;7.232;2023-04-03T13:16:32;13.90;1.00
20174;DHT22;10246;50.620;7.232;2023-04-03T13:19:00;13.70;1.00
20174;DHT22;10246;50.620;7.232;2023-04-03T13:21:32;13.70;1.00
20174;DHT22;10246;50.620;7.232;2023-04-03T13:24:03;13.80;1.00
20174;DHT22;10246;50.620;7.232;2023-04-03T13:26:31;13.80;1.00
20174;DHT22;10246;50.620;7.232;2023-04-03T13:29:07;13.70;1.00
20174;DHT22;10246;50.620;7.232;2023-04-03T13:31:35;13.70;1.00
20174;DHT22;10246;50.620;7.232;2023-04-03T13:34:09;13.40;1.00
20174;DHT22;10246;50.620;7.232;2023-04-03T13:36:45;13.40;1.00
20174;DHT22;10246;50.620;7.232;2023-04-03T13:39:24;13.60;1.00
20174;DHT22;10246;50.620;7.232;2023-04-03T13:41:52;13.60;1.00
20174;DHT22;10246;50.620;7.232;2023-04-03T13:44:29;13.70;1.00
20174;DHT22;10246;50.620;7.232;2023-04-03T13:46:59;13.70;1.00
20174;DHT22;10246;50.620;7.232;2023-04-03T13:49:33;13.70;1.00
20174;DHT22;10246;50.620;7.232;2023-04-03T13:52:02;13.70;1.00
20174;DHT22;10246;50.620;7.232;2023-04-03T13:54:35;14.00;1.00
20174;DHT22;10246;50.620;7.232;2023-04-03T13:57:03;14.00;1.00
20174;DHT22;10246;50.620;7.232;2023-04-03T13:59:39;13.80;1.00
20174;DHT22;10246;50.620;7.232;2023-04-03T14:02:38;13.70;1.00
20174;DHT22;10246;50.620;7.232;2023-04-03T14:05:08;13.50;1.00
20174;DHT22;10246;50.620;7.232;2023-04-03T14:07:37;13.50;1.00
20174;DHT22;10246;50.620;7.232;2023-04-03T14:10:07;13.60;1.00
20174;DHT22;10246;50.620;7.232;2023-04-03T14:12:37;13.80;1.00
20174;DHT22;10246;50.620;7.232;2023-04-03T14:15:17;13.90;1.00
20174;DHT22;10246;50.620;7.232;2023-04-03T14:17:44;14.20;1.00
20174;DHT22;10246;50.620;7.232;2023-04-03T14:20:18;14.10;1.00
20174;DHT22;10246;50.620;7.232;2023-04-03T14:22:47;14.10;1.00
20174;DHT22;10246;50.620;7.232;2023-04-03T14:25:19;14.20;1.00
20174;DHT22;10246;50.620;7.232;2023-04-03T14:27:50;14.00;1.00
20174;DHT22;10246;50.620;7.232;2023-04-03T14:30:22;14.10;1.00
20174;DHT22;10246;50.620;7.232;2023-04-03T14:32:51;14.10;1.00
20174;DHT22;10246;50.620;7.232;2023-04-03T14:35:22;14.20;1.00
20174;DHT22;10246;50.620;7.232;2023-04-03T14:37:51;14.20;1.00
20174;DHT22;10246;50.620;7.232;2023-04-03T14:40:26;14.10;1.00
20174;DHT22;10246;50.620;7.232;2023-04-03T14:42:55;14.10;1.00
20174;DHT22;10246;50.620;7.232;2023-04-03T14:45:24;14.10;1.00
20174;DHT22;10246;50.620;7.232;2023-04-03T14:47:54;14.10;1.00
20174;DHT22;10246;50.620;7.232;2023-04-03T14:50:25;14.30;1.00
20174;DHT22;10246;50.620;7.232;2023-04-03T14:52:57;14.30;1.00
20174;DHT22;10246;50.620;7.232;2023-04-03T14:55:32;14.30;1.00
20174;DHT22;10246;50.620;7.232;2023-04-03T14:58:03;14.20;1.00
20174;DHT22;10246;50.620;7.232;2023-04-03T15:00:31;13.80;1.00
20174;DHT22;10246;50.620;7.232;2023-04-03T15:03:04;13.60;1.00
20174;DHT22;10246;50.620;7.232;2023-04-03T15:05:33;13.50;1.00
20174;DHT22;10246;50.620;7.232;2023-04-03T15:08:03;13.50;1.00
20174;DHT22;10246;50.620;7.232;2023-04-03T15:10:34;13.50;1.00
20174;DHT22;10246;50.620;7.232;2023-04-03T15:13:01;13.60;1.00
20174;DHT22;10246;50.620;7.232;2023-04-03T15:15:29;13.60;1.00
20174;DHT22;10246;50.620;7.232;2023-04-03T15:18:00;13.60;1.00
20174;DHT22;10246;50.620;7.232;2023-04-03T15:20:29;13.30;1.00
20174;DHT22;10246;50.620;7.232;2023-04-03T15:23:00;13.30;1.00
20174;DHT22;10246;50.620;7.232;2023-04-03T15:25:29;13.40;1.00
20174;DHT22;10246;50.620;7.232;2023-04-03T15:28:06;13.60;1.00
20174;DHT22;10246;50.620;7.232;2023-04-03T15:30:39;13.60;1.00
20174;DHT22;10246;50.620;7.232;2023-04-03T15:33:11;13.50;1.00
20174;DHT22;10246;50.620;7.232;2023-04-03T15:35:38;13.30;1.00
20174;DHT22;10246;50.620;7.232;2023-04-03T15:38:07;13.20;1.00
20174;DHT22;10246;50.620;7.232;2023-04-03T15:40:34;13.00;1.00
20174;DHT22;10246;50.620;7.232;2023-04-03T15:43:08;12.90;1.00
20174;DHT22;10246;50.620;7.232;2023-04-03T15:45:36;12.80;1.00
20174;DHT22;10246;50.620;7.232;2023-04-03T15:48:06;12.80;1.00
20174;DHT22;10246;50.620;7.232;2023-04-03T15:50:35;12.90;1.00
20174;DHT22;10246;50.620;7.232;2023-04-03T15:53:05;12.90;1.00
20174;DHT22;10246;50.620;7.232;2023-04-03T15:55:36;13.10;1.00
20174;DHT22;10246;50.620;7.232;2023-04-03T15:58:05;13.20;1.00
20174;DHT22;10246;50.620;7.232;2023-04-03T16:00:35;13.20;1.00
20174;DHT22;10246;50.620;7.232;2023-04-03T16:03:08;13.10;1.00
20174;DHT22;10246;50.620;7.232;2023-04-03T16:05:37;13.00;1.00
20174;DHT22;10246;50.620;7.232;2023-04-03T16:08:07;12.90;1.00
20174;DHT22;10246;50.620;7.232;2023-04-03T16:10:39;12.90;1.00
20174;DHT22;10246;50.620;7.232;2023-04-03T16:13:08;12.90;1.00
20174;DHT22;10246;50.620;7.232;2023-04-03T16:15:35;12.80;1.00
20174;DHT22;10246;50.620;7.232;2023-04-03T16:18:05;12.70;1.00
20174;DHT22;10246;50.620;7.232;2023-04-03T16:20:34;12.70;1.00
20174;DHT22;10246;50.620;7.232;2023-04-03T16:23:06;12.60;1.00
20174;DHT22;10246;50.620;7.232;2023-04-03T16:25:34;12.60;1.00